createdAt,value
2022-12-19T00:01:38.066Z,14.07
2022-12-19T00:04:09.077Z,11.45
2022-12-19T00:06:37.902Z,9.35
2022-12-19T00:09:08.784Z,11.10
2022-12-19T00:11:35.579Z,11.30
2022-12-19T00:14:02.513Z,14.65
2022-12-19T00:16:30.666Z,12.10
2022-12-19T00:18:59.914Z,12.40
2022-12-19T00:21:30.149Z,9.60
2022-12-19T00:23:57.483Z,10.00
2022-12-19T00:26:30.318Z,10.95
2022-12-19T00:28:59.850Z,10.73
2022-12-19T00:31:30.086Z,12.48
2022-12-19T00:33:57.283Z,10.57
2022-12-19T00:36:32.487Z,14.48
2022-12-19T00:39:01.259Z,13.57
2022-12-19T00:41:30.743Z,13.23
2022-12-19T00:44:03.727Z,11.95
2022-12-19T00:46:32.691Z,11.85
2022-12-19T00:49:00.487Z,12.23
2022-12-19T00:51:29.928Z,10.55
2022-12-19T00:53:58.095Z,12.68
2022-12-19T00:56:35.713Z,12.60
2022-12-19T00:59:04.268Z,11.57
2022-12-19T01:01:34.361Z,13.15
2022-12-19T01:06:50.026Z,13.85
2022-12-19T01:09:17.760Z,15.55
2022-12-19T01:12:02.913Z,12.40
2022-12-19T01:14:29.833Z,13.48
2022-12-19T01:16:56.608Z,13.98
2022-12-19T01:19:23.452Z,12.85
2022-12-19T01:21:50.257Z,12.93
2022-12-19T01:24:19.189Z,10.48
2022-12-19T01:26:46.563Z,9.88
2022-12-19T01:29:13.564Z,11.93
2022-12-19T01:31:40.515Z,9.98
2022-12-19T01:34:07.619Z,12.30
2022-12-19T01:36:36.347Z,10.10
2022-12-19T01:39:07.665Z,12.32
2022-12-19T01:41:34.939Z,10.88
2022-12-19T01:44:06.765Z,13.23
2022-12-19T01:46:50.256Z,13.40
2022-12-19T01:49:31.486Z,13.02
2022-12-19T01:52:02.645Z,10.75
2022-12-19T01:54:38.540Z,11.68
2022-12-19T01:57:14.268Z,10.90
2022-12-19T01:59:46.267Z,12.55
2022-12-19T02:02:38.440Z,12.13
2022-12-19T02:05:06.018Z,11.88
2022-12-19T02:07:34.168Z,9.77
2022-12-19T02:10:01.225Z,9.93
2022-12-19T02:12:33.644Z,10.35
2022-12-19T02:15:03.237Z,13.00
2022-12-19T02:17:45.496Z,15.43
2022-12-19T02:20:33.521Z,18.42
2022-12-19T02:23:37.310Z,16.67
2022-12-19T02:27:05.303Z,14.60
2022-12-19T02:29:53.108Z,12.63
2022-12-19T02:32:28.768Z,11.90
2022-12-19T02:35:01.753Z,15.70
2022-12-19T02:37:33.781Z,14.40
2022-12-19T02:40:10.872Z,12.88
2022-12-19T02:42:44.824Z,12.70
2022-12-19T02:45:20.775Z,11.18
2022-12-19T02:47:57.013Z,12.25
2022-12-19T02:50:24.062Z,11.63
2022-12-19T02:52:50.953Z,12.52
2022-12-19T02:55:24.099Z,13.18
2022-12-19T02:58:19.059Z,14.23
2022-12-19T03:01:01.072Z,11.80
2022-12-19T03:03:47.751Z,10.13
2022-12-19T03:06:31.746Z,12.80
2022-12-19T03:09:23.635Z,10.35
2022-12-19T03:12:06.805Z,13.32
2022-12-19T03:14:35.577Z,12.35
2022-12-19T03:17:07.806Z,12.85
2022-12-19T03:19:36.220Z,11.80
2022-12-19T03:22:03.234Z,10.88
2022-12-19T03:24:30.734Z,9.52
2022-12-19T03:27:04.592Z,10.30
2022-12-19T03:29:33.121Z,10.45
2022-12-19T03:32:04.345Z,8.30
2022-12-19T03:34:42.045Z,10.85
2022-12-19T03:37:14.902Z,9.98
2022-12-19T03:39:46.795Z,12.02
2022-12-19T03:42:34.714Z,12.18
2022-12-19T03:45:04.633Z,9.38
2022-12-19T03:47:41.043Z,10.13
2022-12-19T03:50:09.356Z,11.00
2022-12-19T03:52:58.059Z,10.57
2022-12-19T03:55:37.669Z,11.50
2022-12-19T03:58:15.095Z,10.52
2022-12-19T04:00:47.538Z,10.65
2022-12-19T04:03:17.869Z,10.20
2022-12-19T04:05:48.497Z,11.18
2022-12-19T04:08:16.834Z,12.63
2022-12-19T04:10:59.171Z,9.93
2022-12-19T04:13:44.711Z,10.48
2022-12-19T04:16:17.287Z,12.65
2022-12-19T04:18:50.263Z,9.50
2022-12-19T04:21:26.023Z,11.02
2022-12-19T04:23:58.060Z,9.43
2022-12-19T04:26:26.109Z,11.65
2022-12-19T04:29:02.068Z,10.38
2022-12-19T04:31:29.092Z,11.57
2022-12-19T04:33:55.937Z,10.88
2022-12-19T04:36:23.279Z,15.85
2022-12-19T04:38:50.099Z,14.40
2022-12-19T04:41:17.076Z,10.90
2022-12-19T04:43:43.976Z,13.52
2022-12-19T04:46:11.090Z,11.82
2022-12-19T04:48:38.337Z,14.07
2022-12-19T04:51:05.888Z,15.98
2022-12-19T04:53:33.222Z,18.20
2022-12-19T04:56:05.961Z,17.60
2022-12-19T04:58:33.516Z,15.75
2022-12-19T05:01:07.431Z,12.93
2022-12-19T05:03:35.600Z,13.02
2022-12-19T05:06:14.113Z,13.13
2022-12-19T05:08:43.097Z,11.40
2022-12-19T05:11:15.939Z,10.13
2022-12-19T05:13:46.313Z,11.00
2022-12-19T05:16:13.596Z,10.95
2022-12-19T05:18:41.110Z,12.10
2022-12-19T05:21:08.395Z,8.13
2022-12-19T05:23:35.435Z,12.63
2022-12-19T05:26:04.491Z,9.77
2022-12-19T05:28:32.361Z,10.93
2022-12-19T05:31:11.189Z,7.53
2022-12-19T05:33:39.291Z,8.60
2022-12-19T05:36:06.637Z,6.90
2022-12-19T05:38:33.410Z,8.70
2022-12-19T05:41:00.321Z,9.82
2022-12-19T05:43:27.590Z,8.85
2022-12-19T05:45:54.366Z,10.60
2022-12-19T05:48:21.209Z,12.45
2022-12-19T05:50:50.157Z,13.18
2022-12-19T05:53:21.947Z,11.80
2022-12-19T05:55:52.650Z,11.45
2022-12-19T05:58:19.504Z,12.50
2022-12-19T06:00:46.344Z,11.23
2022-12-19T06:03:13.223Z,10.98
2022-12-19T06:05:40.040Z,10.65
2022-12-19T06:08:07.171Z,12.15
2022-12-19T06:10:34.327Z,12.35
2022-12-19T06:13:01.292Z,11.63
2022-12-19T06:15:28.716Z,10.15
2022-12-19T06:17:56.925Z,13.00
2022-12-19T06:20:23.898Z,11.45
2022-12-19T06:22:50.762Z,15.05
2022-12-19T06:25:17.643Z,14.10
2022-12-19T06:27:44.830Z,15.10
2022-12-19T06:30:11.961Z,21.05
2022-12-19T06:32:38.765Z,22.90
2022-12-19T06:35:06.273Z,18.15
2022-12-19T06:37:33.106Z,20.95
2022-12-19T06:39:59.938Z,19.80
2022-12-19T06:42:26.725Z,16.08
2022-12-19T06:44:56.069Z,13.77
2022-12-19T06:47:24.315Z,13.23
2022-12-19T06:49:51.356Z,11.85
2022-12-19T06:52:18.472Z,11.00
2022-12-19T06:54:45.359Z,12.20
2022-12-19T06:57:12.164Z,13.40
2022-12-19T06:59:38.948Z,13.13
2022-12-19T07:02:21.646Z,11.65
2022-12-19T07:04:52.460Z,10.93
2022-12-19T07:07:19.725Z,18.60
2022-12-19T07:09:46.533Z,14.38
2022-12-19T07:12:13.350Z,12.15
2022-12-19T07:14:40.136Z,17.48
2022-12-19T07:17:06.989Z,14.50
2022-12-19T07:19:35.127Z,13.60
2022-12-19T07:22:03.607Z,13.13
2022-12-19T07:24:30.810Z,12.27
2022-12-19T07:26:57.963Z,18.00
2022-12-19T07:29:25.527Z,12.07
2022-12-19T07:31:52.615Z,13.93
2022-12-19T07:34:19.499Z,18.30
2022-12-19T07:36:46.437Z,15.25
2022-12-19T07:39:13.272Z,12.27
2022-12-19T07:41:40.159Z,11.20
2022-12-19T07:44:07.854Z,8.68
2022-12-19T07:46:35.391Z,17.45
2022-12-19T07:49:02.275Z,14.95
2022-12-19T07:51:29.306Z,17.33
2022-12-19T07:53:56.118Z,14.93
2022-12-19T07:56:23.072Z,14.30
2022-12-19T07:58:50.135Z,14.25
2022-12-19T08:01:17.155Z,13.65
2022-12-19T08:03:44.203Z,12.48
2022-12-19T08:06:11.154Z,11.63
2022-12-19T08:08:38.260Z,9.82
2022-12-19T08:11:13.856Z,14.07
2022-12-19T08:13:46.406Z,13.20
2022-12-19T08:16:14.178Z,10.73
2022-12-19T08:18:41.066Z,7.32
2022-12-19T08:21:09.436Z,10.10
2022-12-19T08:23:36.305Z,6.88
2022-12-19T08:26:06.326Z,7.13
2022-12-19T08:28:34.845Z,10.63
2022-12-19T08:31:09.741Z,8.00
2022-12-19T08:33:37.018Z,9.80
2022-12-19T08:36:08.281Z,8.07
2022-12-19T08:38:35.808Z,9.93
2022-12-19T08:41:03.149Z,8.23
2022-12-19T08:43:30.605Z,9.52
2022-12-19T08:45:57.695Z,10.15
2022-12-19T08:48:24.946Z,8.68
2022-12-19T08:51:00.660Z,10.52
2022-12-19T08:53:29.282Z,9.02
2022-12-19T08:55:57.410Z,8.15
2022-12-19T08:58:25.032Z,10.65
2022-12-19T09:01:03.287Z,8.68
2022-12-19T09:03:39.378Z,7.43
2022-12-19T09:06:20.962Z,9.88
2022-12-19T09:08:47.928Z,8.23
2022-12-19T09:11:17.129Z,7.60
2022-12-19T09:13:45.060Z,6.47
2022-12-19T09:16:13.861Z,9.20
2022-12-19T09:18:46.615Z,7.90
2022-12-19T09:21:15.719Z,9.68
2022-12-19T09:23:43.841Z,15.68
2022-12-19T09:26:13.754Z,19.67
2022-12-19T09:28:41.901Z,18.35
2022-12-19T09:31:12.819Z,21.58
2022-12-19T09:33:43.553Z,22.52
2022-12-19T09:36:16.774Z,24.83
2022-12-19T09:38:44.110Z,20.83
2022-12-19T09:41:13.899Z,22.38
2022-12-19T09:43:57.698Z,19.00
2022-12-19T09:46:49.034Z,22.08
2022-12-19T09:49:51.542Z,22.48
2022-12-19T09:52:30.242Z,15.75
2022-12-19T09:55:20.445Z,13.15
2022-12-19T09:58:10.091Z,13.52
2022-12-19T10:00:44.821Z,16.55
2022-12-19T10:03:28.308Z,13.23
2022-12-19T10:07:13.863Z,14.00
2022-12-19T10:09:34.045Z,12.90
2022-12-19T10:12:38.589Z,10.32
2022-12-19T10:15:21.158Z,14.25
2022-12-19T10:18:40.196Z,9.18
2022-12-19T10:21:13.089Z,10.63
2022-12-19T10:23:48.975Z,8.57
2022-12-19T10:26:35.911Z,9.73
2022-12-19T10:29:35.620Z,13.13
2022-12-19T10:32:19.664Z,17.80
2022-12-19T10:34:47.986Z,19.60
2022-12-19T10:37:29.692Z,18.42
2022-12-19T10:40:27.516Z,18.48
2022-12-19T10:43:15.244Z,18.05
2022-12-19T10:45:50.495Z,17.48
2022-12-19T10:48:24.286Z,18.00
2022-12-19T10:50:57.753Z,14.52
2022-12-19T10:53:29.923Z,14.55
2022-12-19T10:56:13.127Z,14.98
2022-12-19T10:58:44.532Z,12.73
2022-12-19T11:01:38.961Z,12.15
2022-12-19T11:04:24.082Z,12.77
2022-12-19T11:07:07.298Z,14.63
2022-12-19T11:09:45.259Z,11.40
2022-12-19T11:17:12.459Z,11.60
2022-12-19T11:20:43.880Z,17.25
2022-12-19T11:25:03.975Z,16.83
2022-12-19T11:29:25.268Z,15.38
2022-12-19T11:29:37.685Z,12.25
2022-12-19T11:29:43.274Z,14.13
2022-12-19T11:32:42.997Z,10.32
2022-12-19T11:35:36.919Z,10.20
2022-12-19T11:38:06.130Z,9.57
2022-12-19T11:40:48.987Z,13.77
2022-12-19T11:43:45.319Z,18.40
2022-12-19T11:46:25.421Z,15.68
2022-12-19T11:49:14.084Z,11.95
2022-12-19T11:51:50.235Z,13.93
2022-12-19T11:54:32.781Z,16.13
2022-12-19T11:56:59.876Z,19.20
2022-12-19T11:59:26.601Z,16.70
2022-12-19T12:02:18.265Z,12.95
2022-12-19T12:04:54.129Z,10.57
2022-12-19T12:07:39.850Z,13.85
2022-12-19T12:14:25.783Z,12.18
2022-12-19T12:25:28.561Z,11.43
2022-12-19T12:30:05.550Z,12.88
2022-12-19T12:31:26.202Z,9.93
2022-12-19T12:31:45.829Z,18.40
2022-12-19T12:31:53.469Z,11.57
2022-12-19T12:32:05.067Z,13.27
2022-12-19T12:35:41.440Z,12.57
2022-12-19T12:37:57.346Z,13.02
2022-12-19T12:39:25.309Z,9.38
2022-12-19T12:42:12.500Z,14.75
2022-12-19T12:44:45.610Z,11.32
2022-12-19T12:47:25.668Z,12.43
2022-12-19T12:50:04.722Z,10.45
2022-12-19T12:52:41.596Z,10.70
2022-12-19T12:55:28.946Z,8.85
2022-12-19T12:57:56.244Z,10.13
2022-12-19T13:00:34.772Z,12.70
2022-12-19T13:03:12.078Z,10.45
2022-12-19T13:05:54.925Z,13.00
2022-12-19T13:08:38.971Z,11.02
2022-12-19T13:11:33.696Z,10.27
2022-12-19T13:14:00.704Z,12.35
2022-12-19T13:16:45.737Z,12.13
2022-12-19T13:19:28.451Z,12.80
2022-12-19T13:22:05.116Z,10.95
2022-12-19T13:24:50.356Z,9.77
2022-12-19T13:27:20.314Z,9.75
2022-12-19T13:30:12.452Z,8.95
2022-12-19T13:32:39.152Z,9.00
2022-12-19T13:36:58.794Z,10.55
2022-12-19T13:39:51.095Z,10.05
2022-12-19T13:41:59.824Z,9.88
2022-12-19T13:44:27.003Z,7.97
2022-12-19T13:46:55.476Z,9.35
2022-12-19T13:49:34.879Z,11.38
2022-12-19T13:52:04.027Z,9.98
2022-12-19T13:54:36.820Z,12.30
2022-12-19T13:57:09.185Z,8.00
2022-12-19T13:59:39.905Z,7.63
2022-12-19T14:02:15.862Z,9.48
2022-12-19T14:04:44.825Z,7.60
2022-12-19T14:07:42.192Z,8.23
2022-12-19T14:11:33.850Z,8.93
2022-12-19T14:13:57.670Z,8.40
2022-12-19T14:16:40.189Z,7.57
2022-12-19T14:19:26.031Z,8.57
2022-12-19T14:22:04.563Z,12.77
2022-12-19T14:24:35.246Z,10.95
2022-12-19T14:28:22.351Z,9.70
2022-12-19T14:30:30.636Z,10.00
2022-12-19T14:33:45.424Z,9.20
2022-12-19T14:36:07.131Z,8.50
2022-12-19T14:39:19.525Z,8.57
2022-12-19T14:42:02.990Z,10.98
2022-12-19T14:53:17.579Z,11.25
2022-12-19T14:54:06.173Z,8.82
2022-12-19T14:54:17.638Z,9.88
2022-12-19T14:54:32.372Z,10.73
2022-12-19T14:59:01.994Z,9.88
2022-12-19T15:01:33.271Z,10.20
2022-12-19T15:04:49.650Z,10.55
2022-12-19T15:07:07.036Z,9.32
2022-12-19T15:11:05.269Z,9.82
2022-12-19T15:14:51.744Z,11.30
2022-12-19T15:16:00.695Z,8.05
2022-12-19T15:18:42.477Z,8.25
2022-12-19T15:21:14.568Z,8.32
2022-12-19T15:23:44.091Z,7.60
2022-12-19T15:26:20.099Z,6.93
2022-12-19T15:28:51.557Z,6.75
2022-12-19T15:31:36.472Z,6.00
2022-12-19T15:34:36.891Z,7.85
2022-12-19T15:37:10.384Z,12.45
2022-12-19T15:39:37.562Z,12.82
2022-12-19T15:42:06.503Z,13.10
2022-12-19T15:44:39.875Z,11.77
2022-12-19T15:47:21.878Z,11.13
2022-12-19T15:49:48.745Z,11.25
2022-12-19T15:52:20.541Z,13.60
2022-12-19T15:54:50.321Z,9.55
2022-12-19T15:57:39.674Z,14.07
2022-12-19T16:00:23.143Z,13.80
2022-12-19T16:05:38.896Z,8.45
2022-12-19T16:08:15.271Z,8.45
2022-12-19T16:10:43.469Z,7.95
2022-12-19T16:13:17.992Z,9.20
2022-12-19T16:15:45.620Z,11.25
2022-12-19T16:18:14.092Z,10.38
2022-12-19T16:20:41.831Z,11.50
2022-12-19T16:23:09.937Z,8.77
2022-12-19T16:25:41.937Z,9.20
2022-12-19T16:28:29.232Z,13.77
2022-12-19T16:30:57.881Z,10.73
2022-12-19T16:33:28.749Z,10.77
2022-12-19T16:36:04.203Z,9.48
2022-12-19T16:38:31.863Z,10.77
2022-12-19T16:40:58.689Z,10.48
2022-12-19T16:43:36.288Z,15.18
2022-12-19T16:46:05.956Z,10.25
2022-12-19T16:48:35.638Z,10.20
2022-12-19T16:51:03.193Z,9.60
2022-12-19T16:53:30.208Z,7.05
2022-12-19T16:55:57.519Z,9.98
2022-12-19T16:58:27.640Z,9.00
2022-12-19T17:00:55.711Z,16.52
2022-12-19T17:03:25.651Z,18.08
2022-12-19T17:05:52.493Z,20.58
2022-12-19T17:08:19.377Z,14.77
2022-12-19T17:10:47.607Z,12.43
2022-12-19T17:13:17.603Z,10.52
2022-12-19T17:15:46.511Z,10.85
2022-12-19T17:18:23.840Z,6.65
2022-12-19T17:20:50.771Z,8.73
2022-12-19T17:23:22.677Z,11.68
2022-12-19T17:25:50.258Z,11.15
2022-12-19T17:28:17.969Z,14.23
2022-12-19T17:30:51.166Z,13.95
2022-12-19T17:33:19.007Z,10.40
2022-12-19T17:35:46.888Z,9.93
2022-12-19T17:38:15.773Z,9.38
2022-12-19T17:40:43.153Z,8.90
2022-12-19T17:43:13.161Z,7.93
2022-12-19T17:45:40.892Z,9.15
2022-12-19T17:48:31.239Z,9.07
2022-12-19T17:50:58.793Z,7.22
2022-12-19T17:53:26.538Z,7.30
2022-12-19T17:55:53.332Z,8.43
2022-12-19T17:58:21.803Z,7.35
2022-12-19T18:00:50.134Z,7.78
2022-12-19T18:03:25.419Z,5.93
2022-12-19T18:05:54.669Z,7.82
2022-12-19T18:08:27.936Z,8.35
2022-12-19T18:10:57.122Z,13.95
2022-12-19T18:13:25.521Z,17.05
2022-12-19T18:15:56.187Z,9.88
2022-12-19T18:18:28.605Z,9.38
2022-12-19T18:20:55.787Z,9.55
2022-12-19T18:23:23.720Z,9.73
2022-12-19T18:25:54.882Z,8.98
2022-12-19T18:28:26.307Z,7.18
2022-12-19T18:30:58.300Z,8.25
2022-12-19T18:33:25.289Z,8.07
2022-12-19T18:35:52.267Z,8.93
2022-12-19T18:38:21.757Z,7.45
2022-12-19T18:40:51.886Z,6.78
2022-12-19T18:43:19.664Z,8.32
2022-12-19T18:45:50.770Z,13.02
2022-12-19T18:48:25.538Z,12.32
2022-12-19T18:50:53.889Z,13.20
2022-12-19T18:53:22.045Z,9.45
2022-12-19T18:55:51.135Z,12.30
2022-12-19T18:58:19.220Z,14.18
2022-12-19T19:00:46.956Z,11.10
2022-12-19T19:03:25.146Z,11.68
2022-12-19T19:05:52.284Z,14.35
2022-12-19T19:08:22.185Z,17.33
2022-12-19T19:10:50.353Z,12.80
2022-12-19T19:13:18.939Z,16.80
2022-12-19T19:15:51.874Z,17.55
2022-12-19T19:18:29.841Z,16.20
2022-12-19T19:21:01.056Z,16.13
2022-12-19T19:23:34.451Z,14.85
2022-12-19T19:26:01.239Z,11.52
2022-12-19T19:28:28.211Z,11.85
2022-12-19T19:30:55.790Z,8.05
2022-12-19T19:33:32.260Z,9.27
2022-12-19T19:36:09.319Z,8.25
2022-12-19T19:38:39.310Z,10.32
2022-12-19T19:41:06.352Z,10.82
2022-12-19T19:43:35.556Z,8.82
2022-12-19T19:46:03.361Z,8.80
2022-12-19T19:48:30.703Z,7.82
2022-12-19T19:50:57.555Z,7.05
2022-12-19T19:53:24.383Z,8.07
2022-12-19T19:56:00.802Z,9.15
2022-12-19T19:58:28.786Z,8.75
2022-12-19T20:00:56.765Z,9.75
2022-12-19T20:03:24.546Z,8.93
2022-12-19T20:05:59.156Z,9.05
2022-12-19T20:08:26.489Z,10.65
2022-12-19T20:10:58.854Z,10.00
2022-12-19T20:13:26.016Z,10.63
2022-12-19T20:15:53.290Z,10.00
2022-12-19T20:18:21.246Z,10.35
2022-12-19T20:20:48.926Z,9.68
2022-12-19T20:23:15.803Z,7.43
2022-12-19T20:25:43.274Z,8.23
2022-12-19T20:28:10.326Z,9.23
2022-12-19T20:30:38.292Z,8.80
2022-12-19T20:33:05.158Z,8.25
2022-12-19T20:35:31.983Z,9.45
2022-12-19T20:37:58.822Z,9.50
2022-12-19T20:40:25.675Z,10.18
2022-12-19T20:42:52.448Z,8.13
2022-12-19T20:45:19.280Z,8.27
2022-12-19T20:47:46.091Z,8.10
2022-12-19T20:50:13.020Z,7.13
2022-12-19T20:52:39.981Z,7.20
2022-12-19T20:55:07.556Z,9.05
2022-12-19T20:57:34.378Z,10.40
2022-12-19T21:00:01.926Z,10.10
2022-12-19T21:02:36.339Z,9.30
2022-12-19T21:05:15.739Z,8.25
2022-12-19T21:07:42.649Z,9.05
2022-12-19T21:10:10.191Z,11.30
2022-12-19T21:12:41.106Z,9.25
2022-12-19T21:15:12.363Z,8.50
2022-12-19T21:17:39.168Z,8.15
2022-12-19T21:20:06.769Z,7.95
2022-12-19T21:22:33.556Z,7.88
2022-12-19T21:25:00.383Z,7.20
2022-12-19T21:27:27.259Z,6.13
2022-12-19T21:29:54.178Z,7.85
2022-12-19T21:32:23.819Z,7.55
2022-12-19T21:34:53.671Z,8.10
2022-12-19T21:37:20.488Z,5.25
2022-12-19T21:39:47.397Z,6.72
2022-12-19T21:42:16.969Z,10.13
2022-12-19T21:44:43.760Z,7.90
2022-12-19T21:47:11.188Z,11.48
2022-12-19T21:49:38.064Z,17.75
2022-12-19T21:52:05.072Z,18.63
2022-12-19T21:54:32.029Z,14.57
2022-12-19T21:56:58.927Z,12.98
2022-12-19T21:59:25.765Z,12.38
2022-12-19T22:01:53.008Z,11.65
2022-12-19T22:04:26.533Z,19.40
2022-12-19T22:06:53.431Z,12.00
2022-12-19T22:09:22.696Z,10.25
2022-12-19T22:11:49.784Z,10.48
2022-12-19T22:14:17.755Z,8.20
2022-12-19T22:16:45.115Z,7.03
2022-12-19T22:19:17.471Z,9.80
2022-12-19T22:21:46.459Z,11.85
2022-12-19T22:24:14.931Z,15.05
2022-12-19T22:26:41.849Z,10.00
2022-12-19T22:29:11.654Z,9.75
2022-12-19T22:31:39.062Z,8.65
2022-12-19T22:34:09.187Z,6.95
2022-12-19T22:36:37.523Z,7.38
2022-12-19T22:39:06.660Z,7.63
2022-12-19T22:41:35.327Z,8.15
2022-12-19T22:44:02.922Z,6.15
2022-12-19T22:46:37.367Z,7.47
2022-12-19T22:49:06.685Z,6.97
2022-12-19T22:51:35.085Z,7.40
2022-12-19T22:54:04.639Z,8.63
2022-12-19T22:56:32.641Z,5.82
2022-12-19T22:59:03.017Z,8.77
2022-12-19T23:01:42.039Z,6.97
2022-12-19T23:04:12.185Z,7.13
2022-12-19T23:06:39.420Z,6.25
2022-12-19T23:09:07.915Z,11.82
2022-12-19T23:11:37.973Z,13.70
2022-12-19T23:14:07.768Z,12.55
2022-12-19T23:16:34.766Z,12.32
2022-12-19T23:19:01.783Z,10.05
2022-12-19T23:21:28.926Z,8.48
2022-12-19T23:23:56.388Z,8.85
2022-12-19T23:26:31.510Z,8.48
2022-12-19T23:29:01.086Z,7.78
2022-12-19T23:31:29.318Z,8.43
2022-12-19T23:33:57.063Z,7.68
2022-12-19T23:37:00.480Z,7.03
2022-12-19T23:39:11.995Z,6.70
2022-12-19T23:41:39.744Z,8.70
2022-12-19T23:44:08.668Z,6.25
2022-12-19T23:46:35.840Z,7.85
2022-12-19T23:49:03.253Z,7.85
2022-12-19T23:51:30.233Z,7.25
2022-12-19T23:53:57.331Z,7.63
2022-12-19T23:56:30.458Z,8.38
2022-12-19T23:58:58.030Z,8.30
